Observation data for Plainview on 12/09/2018      Previous  Date       Current Mesonet Observations  Soil Data  Daily Summary Page  Observations in Plain Language
KPVS 090600Z 28003KT M07/M07 A3029 RMK A01 T10651066  RH  100%=      5-min Rain = 0
KPVS 090605Z 28003KT M06/M07 A3029 RMK A01 T10641066  RH  100%=      5-min Rain = 0
KPVS 090610Z 28003KT M06/M07 A3029 RMK A01 T10641066  RH  100%=      5-min Rain = 0
KPVS 090615Z 28002KT M06/M06 A3029 RMK A01 T10611063  RH  100%=      5-min Rain = 0
KPVS 090620Z 29003KT M06/M06 A3029 RMK A01 T10611062  RH  100%=      5-min Rain = 0
KPVS 090625Z 28002KT M06/M06 A3029 RMK A01 T10611063  RH  100%=      5-min Rain = 0
KPVS 090630Z 28003KT M06/M06 A3029 RMK A01 T10601061  RH  100%=      5-min Rain = 0
KPVS 090635Z 28004KT M06/M06 A3029 RMK A01 T10581059  RH  100%=      5-min Rain = 0
KPVS 090640Z 28004KT M06/M06 A3029 RMK A01 T10561058  RH  100%=      5-min Rain = 0
KPVS 090645Z 27003KT M06/M06 A3029 RMK A01 T10561057  RH  100%=      5-min Rain = 0
KPVS 090650Z 27001KT M06/M06 A3029 RMK A01 T10561058  RH  100%=      5-min Rain = 0
KPVS 090655Z 28001KT M06/M06 A3029 RMK A01 T10571058  RH  100%=      5-min Rain = 0
KPVS 090700Z 29001KT M06/M06 A3029 RMK A01 T10581059  RH  100%=      5-min Rain = 0
KPVS 090705Z 30002KT M06/M06 A3029 RMK A01 T10581060  RH  100%=      5-min Rain = 0
KPVS 090710Z 30002KT M06/M06 A3029 RMK A01 T10591060  RH  100%=      5-min Rain = 0
KPVS 090715Z 29002KT M06/M06 A3029 RMK A01 T10581059  RH  100%=      5-min Rain = 0
KPVS 090720Z 29002KT M06/M06 A3029 RMK A01 T10571058  RH  100%=      5-min Rain = 0
KPVS 090725Z 29002KT M06/M06 A3029 RMK A01 T10571058  RH  100%=      5-min Rain = 0
KPVS 090730Z 29002KT M06/M06 A3028 RMK A01 T10571059  RH  100%=      5-min Rain = 0
KPVS 090735Z 29002KT M06/M06 A3028 RMK A01 T10591060  RH  100%=      5-min Rain = 0
KPVS 090740Z 29002KT M06/M06 A3028 RMK A01 T10601061  RH  100%=      5-min Rain = 0
KPVS 090745Z 29002KT M06/M06 A3028 RMK A01 T10611062  RH  100%=      5-min Rain = 0
KPVS 090750Z 29002KT M06/M06 A3028 RMK A01 T10631064  RH  100%=      5-min Rain = 0
KPVS 090755Z 29002KT M06/M07 A3028 RMK A01 T10641065  RH  100%=      5-min Rain = 0
KPVS 090800Z 30001KT M06/M07 A3028 RMK A01 T10641065  RH  100%=      5-min Rain = 0
KPVS 090805Z 31001KT M06/M07 A3028 RMK A01 T10641065  RH  100%=      5-min Rain = 0
KPVS 090810Z 31002KT M06/M07 A3028 RMK A01 T10641065  RH  100%=      5-min Rain = 0
KPVS 090815Z 32002KT M06/M07 A3028 RMK A01 T10631065  RH  100%=      5-min Rain = 0
KPVS 090820Z 31002KT M06/M06 A3028 RMK A01 T10631064  RH  100%=      5-min Rain = 0
KPVS 090825Z 30002KT M07/M07 A3028 RMK A01 T10651067  RH  100%=      5-min Rain = 0
KPVS 090830Z 30002KT M07/M07 A3028 RMK A01 T10661067  RH  100%=      5-min Rain = 0
KPVS 090835Z 30002KT M07/M07 A3028 RMK A01 T10651066  RH  100%=      5-min Rain = 0
KPVS 090840Z 30002KT M06/M07 A3028 RMK A01 T10641065  RH  100%=      5-min Rain = 0
KPVS 090845Z 30002KT M07/M07 A3028 RMK A01 T10651067  RH  100%=      5-min Rain = 0
KPVS 090850Z 30002KT M07/M07 A3028 RMK A01 T10661067  RH  100%=      5-min Rain = 0
KPVS 090855Z 28002KT M07/M07 A3028 RMK A01 T10661068  RH  100%=      5-min Rain = 0
KPVS 090900Z 28002KT M07/M07 A3028 RMK A01 T10671069  RH  100%=      5-min Rain = 0
KPVS 090905Z 27002KT M07/M07 A3028 RMK A01 T10661068  RH  100%=      5-min Rain = 0
KPVS 090910Z 28002KT M07/M07 A3028 RMK A01 T10651066  RH  100%=      5-min Rain = 0
KPVS 090915Z 29003KT M07/M07 A3028 RMK A01 T10661068  RH  100%=      5-min Rain = 0
KPVS 090920Z 30003KT M07/M07 A3028 RMK A01 T10701072  RH  099%=      5-min Rain = 0
KPVS 090925Z 31002KT M07/M07 A3028 RMK A01 T10711073  RH  099%=      5-min Rain = 0
KPVS 090930Z 31002KT M07/M07 A3028 RMK A01 T10701072  RH  100%=      5-min Rain = 0
KPVS 090935Z 31002KT M07/M07 A3029 RMK A01 T10691071  RH  100%=      5-min Rain = 0
KPVS 090940Z 31002KT M07/M07 A3028 RMK A01 T10651067  RH  100%=      5-min Rain = 0
KPVS 090945Z 31002KT M06/M06 A3029 RMK A01 T10601062  RH  100%=      5-min Rain = 0
KPVS 090950Z 30003KT M06/M06 A3029 RMK A01 T10591061  RH  100%=      5-min Rain = 0
KPVS 090955Z 31002KT M06/M06 A3028 RMK A01 T10591061  RH  100%=      5-min Rain = 0
KPVS 091000Z 31002KT M06/M06 A3028 RMK A01 T10601062  RH  100%=      5-min Rain = 0
KPVS 091005Z 31002KT M06/M06 A3028 RMK A01 T10601062  RH  100%=      5-min Rain = 0
KPVS 091010Z 31001KT M06/M06 A3028 RMK A01 T10591060  RH  100%=      5-min Rain = 0
KPVS 091015Z 31002KT M06/M06 A3028 RMK A01 T10571058  RH  100%=      5-min Rain = 0
KPVS 091020Z 31002KT M06/M06 A3028 RMK A01 T10571058  RH  100%=      5-min Rain = 0
KPVS 091025Z 31002KT M06/M06 A3028 RMK A01 T10591061  RH  100%=      5-min Rain = 0
KPVS 091030Z 31003KT M06/M06 A3028 RMK A01 T10621064  RH  100%=      5-min Rain = 0
KPVS 091035Z 31002KT M06/M06 A3028 RMK A01 T10631064  RH  100%=      5-min Rain = 0
KPVS 091040Z 31002KT M06/M06 A3028 RMK A01 T10621063  RH  100%=      5-min Rain = 0
KPVS 091045Z 31002KT M06/M06 A3028 RMK A01 T10601062  RH  100%=      5-min Rain = 0
KPVS 091050Z 31002KT M06/M06 A3028 RMK A01 T10601061  RH  100%=      5-min Rain = 0
KPVS 091055Z 31002KT M06/M06 A3028 RMK A01 T10591061  RH  100%=      5-min Rain = 0
KPVS 091100Z 31002KT M06/M06 A3028 RMK A01 T10591060  RH  100%=      5-min Rain = 0
KPVS 091105Z 32002KT M06/M06 A3028 RMK A01 T10611063  RH  100%=      5-min Rain = 0
KPVS 091110Z 32002KT M06/M06 A3028 RMK A01 T10621064  RH  100%=      5-min Rain = 0
KPVS 091115Z 32002KT M06/M07 A3029 RMK A01 T10631065  RH  100%=      5-min Rain = 0
KPVS 091120Z 33002KT M06/M06 A3029 RMK A01 T10631064  RH  100%=      5-min Rain = 0
KPVS 091125Z 34003KT M06/M06 A3028 RMK A01 T10591061  RH  100%=      5-min Rain = 0
KPVS 091130Z 34003KT M06/M06 A3028 RMK A01 T10581059  RH  100%=      5-min Rain = 0
KPVS 091135Z 34003KT M06/M06 A3028 RMK A01 T10561058  RH  100%=      5-min Rain = 0
KPVS 091140Z 33003KT M06/M06 A3028 RMK A01 T10571059  RH  100%=      5-min Rain = 0
KPVS 091145Z 32003KT M06/M06 A3029 RMK A01 T10601062  RH  100%=      5-min Rain = 0
KPVS 091150Z 33004KT M06/M06 A3028 RMK A01 T10611063  RH  100%=      5-min Rain = 0
KPVS 091155Z 33003KT M06/M06 A3028 RMK A01 T10611063  RH  100%=      5-min Rain = 0
KPVS 091200Z 33003KT M06/M06 A3029 RMK A01 T10621063  RH  100%=      5-min Rain = 0
KPVS 091205Z 33003KT M06/M06 A3029 RMK A01 T10621064  RH  100%=      5-min Rain = 0
KPVS 091210Z 33004KT M06/M06 A3029 RMK A01 T10621064  RH  100%=      5-min Rain = 0
KPVS 091215Z 33003KT M06/M06 A3029 RMK A01 T10621064  RH  100%=      5-min Rain = 0
KPVS 091220Z 33003KT M06/M07 A3029 RMK A01 T10631065  RH  100%=      5-min Rain = 0
KPVS 091225Z 33003KT M06/M07 A3029 RMK A01 T10641066  RH  100%=      5-min Rain = 0
KPVS 091230Z 34003KT M06/M07 A303 RMK A01 T10631065  RH  100%=      5-min Rain = 0
KPVS 091235Z 34002KT M06/M07 A303 RMK A01 T10641065  RH  100%=      5-min Rain = 0
KPVS 091240Z 33003KT M07/M07 A303 RMK A01 T10651067  RH  100%=      5-min Rain = 0
KPVS 091245Z 33003KT M07/M07 A303 RMK A01 T10671069  RH  100%=      5-min Rain = 0
KPVS 091250Z 33003KT M07/M07 A303 RMK A01 T10691071  RH  099%=      5-min Rain = 0
KPVS 091255Z 33003KT M07/M07 A303 RMK A01 T10681070  RH  100%=      5-min Rain = 0
KPVS 091300Z 33004KT M07/M07 A3031 RMK A01 T10671068  RH  100%=      5-min Rain = 0
KPVS 091305Z 33004KT M07/M07 A3031 RMK A01 T10651066  RH  100%=      5-min Rain = 0
KPVS 091310Z 33004KT M07/M07 A3031 RMK A01 T10661068  RH  100%=      5-min Rain = 0
KPVS 091315Z 33003KT M07/M07 A3031 RMK A01 T10671069  RH  099%=      5-min Rain = 0
KPVS 091320Z 33004KT M07/M07 A3031 RMK A01 T10671069  RH  100%=      5-min Rain = 0
KPVS 091325Z 33004KT M07/M07 A3032 RMK A01 T10661068  RH  100%=      5-min Rain = 0
KPVS 091330Z 33004KT M07/M07 A3032 RMK A01 T10661068  RH  100%=      5-min Rain = 0
KPVS 091335Z 33005KT M06/M07 A3032 RMK A01 T10631065  RH  100%=      5-min Rain = 0
KPVS 091340Z 34004KT M06/M06 A3033 RMK A01 T10601062  RH  100%=      5-min Rain = 0
KPVS 091345Z 34004KT M06/M06 A3033 RMK A01 T10601061  RH  100%=      5-min Rain = 0
KPVS 091350Z 34004KT M06/M06 A3033 RMK A01 T10591061  RH  100%=      5-min Rain = 0
KPVS 091355Z 33003KT M06/M06 A3033 RMK A01 T10611063  RH  100%=      5-min Rain = 0
KPVS 091400Z 33004KT M06/M07 A3033 RMK A01 T10631065  RH  100%=      5-min Rain = 0
KPVS 091405Z 33004KT M06/M06 A3033 RMK A01 T10621063  RH  100%=      5-min Rain = 0
KPVS 091410Z 33003KT M06/M06 A3033 RMK A01 T10611062  RH  100%=      5-min Rain = 0
KPVS 091415Z 32003KT M06/M06 A3033 RMK A01 T10611063  RH  100%=      5-min Rain = 0
KPVS 091420Z 33004KT M06/M07 A3034 RMK A01 T10631065  RH  099%=      5-min Rain = 0
KPVS 091425Z 33003KT M06/M06 A3034 RMK A01 T10611063  RH  100%=      5-min Rain = 0
KPVS 091430Z 32003KT M06/M06 A3034 RMK A01 T10571059  RH  100%=      5-min Rain = 0
KPVS 091435Z 32003KT M05/M06 A3034 RMK A01 T10541056  RH  100%=      5-min Rain = 0
KPVS 091440Z 33004KT M05/M05 A3034 RMK A01 T10521053  RH  100%=      5-min Rain = 0
KPVS 091445Z 32003KT M05/M05 A3034 RMK A01 T10491050  RH  100%=      5-min Rain = 0
KPVS 091450Z 32002KT M05/M05 A3035 RMK A01 T10471048  RH  100%=      5-min Rain = 0
KPVS 091455Z 31002KT M04/M05 A3035 RMK A01 T10441046  RH  100%=      5-min Rain = 0
KPVS 091500Z 32002KT M04/M04 A3035 RMK A01 T10421044  RH  100%=      5-min Rain = 0
KPVS 091505Z 33003KT M04/M04 A3036 RMK A01 T10401041  RH  100%=      5-min Rain = 0
KPVS 091510Z 34003KT M04/M04 A3036 RMK A01 T10371039  RH  100%=      5-min Rain = 0
KPVS 091515Z 35002KT M03/M04 A3036 RMK A01 T10341035  RH  100%=      5-min Rain = 0
KPVS 091520Z 34002KT M03/M03 A3036 RMK A01 T10301032  RH  100%=      5-min Rain = 0
KPVS 091525Z 34004KT M03/M03 A3036 RMK A01 T10291031  RH  100%=      5-min Rain = 0
KPVS 091530Z 35004KT M03/M03 A3036 RMK A01 T10321034  RH  100%=      5-min Rain = 0
KPVS 091535Z 35003KT M03/M04 A3036 RMK A01 T10331035  RH  099%=      5-min Rain = 0
KPVS 091540Z 35003KT M03/M03 A3036 RMK A01 T10301032  RH  100%=      5-min Rain = 0
KPVS 091545Z 35003KT M03/M03 A3037 RMK A01 T10271029  RH  100%=      5-min Rain = 0
KPVS 091550Z 00002KT M02/M03 A3037 RMK A01 T10241026  RH  100%=      5-min Rain = 0
KPVS 091555Z 04002KT M02/M02 A3037 RMK A01 T10211023  RH  099%=      5-min Rain = 0
KPVS 091600Z 02003KT M02/M03 A3036 RMK A01 T10221025  RH  099%=      5-min Rain = 0
KPVS 091605Z 35002KT M02/M02 A3037 RMK A01 T10211024  RH  099%=      5-min Rain = 0
KPVS 091610Z 01002KT M02/M02 A3037 RMK A01 T10191022  RH  098%=      5-min Rain = 0
KPVS 091615Z 00002KT M02/M02 A3037 RMK A01 T10161020  RH  098%=      5-min Rain = 0
KPVS 091620Z 01002KT M01/M02 A3038 RMK A01 T10131018  RH  098%=      5-min Rain = 0
KPVS 091625Z 00002KT M01/M02 A3037 RMK A01 T10111017  RH  097%=      5-min Rain = 0
KPVS 091630Z 35003KT M01/M02 A3038 RMK A01 T10101018  RH  096%=      5-min Rain = 0
KPVS 091635Z 00003KT M01/M02 A3038 RMK A01 T10091017  RH  095%=      5-min Rain = 0
KPVS 091640Z 01003KT M01/M01 A3038 RMK A01 T10051014  RH  095%=      5-min Rain = 0
KPVS 091645Z 00003KT M00/M02 A3038 RMK A01 T10041016  RH  093%=      5-min Rain = 0
KPVS 091650Z 01002KT M00/M01 A3037 RMK A01 T10021014  RH  093%=      5-min Rain = 0
KPVS 091655Z 01002KT 00/01 A3037 RMK A01 T00000-13  RH  092%=      5-min Rain = 0
KPVS 091700Z 00002KT 00/M01 A3037 RMK A01 T00021012  RH  091%=      5-min Rain = 0.01
KPVS 091705Z 01001KT 01/M01 A3037 RMK A01 T00051011  RH  091%=      5-min Rain = 0
KPVS 091710Z 00002KT 01/M01 A3037 RMK A01 T00071011  RH  089%=      5-min Rain = 0
KPVS 091715Z 02001KT 01/M01 A3037 RMK A01 T00091011  RH  088%=      5-min Rain = 0
KPVS 091720Z 05000KT 01/M01 A3037 RMK A01 T00121009  RH  087%=      5-min Rain = 0
KPVS 091725Z 30000KT 02/M00 A3037 RMK A01 T00191002  RH  087%=      5-min Rain = 0
KPVS 091730Z 06000KT 02/00 A3037 RMK A01 T00220001  RH  087%=      5-min Rain = 0.01
KPVS 091735Z 02001KT 03/01 A3037 RMK A01 T00260007  RH  088%=      5-min Rain = 0
KPVS 091740Z 02002KT 02/M00 A3037 RMK A01 T00201002  RH  086%=      5-min Rain = 0
KPVS 091745Z 02002KT 02/M00 A3037 RMK A01 T00161004  RH  087%=      5-min Rain = 0
KPVS 091750Z 03002KT 02/M01 A3036 RMK A01 T00161006  RH  086%=      5-min Rain = 0
KPVS 091755Z 01002KT 02/M01 A3037 RMK A01 T00171007  RH  085%=      5-min Rain = 0
KPVS 091800Z 01002KT 02/M01 A3036 RMK A01 T00181012  RH  082%=      5-min Rain = 0.01
KPVS 091805Z 36002KT 02/M01 A3036 RMK A01 T00201012  RH  080%=      5-min Rain = 0
KPVS 091810Z 35002KT 02/M02 A3036 RMK A01 T00211019  RH  076%=      5-min Rain = 0
KPVS 091815Z 01003KT 02/M02 A3036 RMK A01 T00241020  RH  074%=      5-min Rain = 0
KPVS 091820Z 35002KT 02/M02 A3036 RMK A01 T00241023  RH  072%=      5-min Rain = 0
KPVS 091825Z 34002KT 03/M02 A3035 RMK A01 T00271024  RH  070%=      5-min Rain = 0.01
KPVS 091830Z 34003KT 03/M03 A3035 RMK A01 T00281025  RH  068%=      5-min Rain = 0
KPVS 091835Z 35004KT 03/M03 A3035 RMK A01 T00291027  RH  067%=      5-min Rain = 0.01
KPVS 091840Z 01004KT 03/M03 A3035 RMK A01 T00291028  RH  067%=      5-min Rain = 0
KPVS 091845Z 02004KT 03/M03 A3034 RMK A01 T00301027  RH  067%=      5-min Rain = 0
KPVS 091850Z 01003KT 03/M02 A3034 RMK A01 T00321024  RH  068%=      5-min Rain = 0
KPVS 091855Z 01004KT 03/M03 A3034 RMK A01 T00321028  RH  065%=      5-min Rain = 0
KPVS 091900Z 01003KT 03/M03 A3034 RMK A01 T00331026  RH  066%=      5-min Rain = 0
KPVS 091905Z 01003KT 04/M03 A3033 RMK A01 T00351025  RH  065%=      5-min Rain = 0
KPVS 091910Z 05002KT 04/M03 A3033 RMK A01 T00371025  RH  065%=      5-min Rain = 0
KPVS 091915Z 02003KT 04/M03 A3033 RMK A01 T00371026  RH  064%=      5-min Rain = 0
KPVS 091920Z 02004KT 04/M03 A3033 RMK A01 T00371026  RH  064%=      5-min Rain = 0
KPVS 091925Z 01002KT 04/M03 A3033 RMK A01 T00391025  RH  064%=      5-min Rain = 0
KPVS 091930Z 36003KT 04/M03 A3033 RMK A01 T00401025  RH  063%=      5-min Rain = 0
KPVS 091935Z 25001KT 04/M02 A3033 RMK A01 T00431022  RH  063%=      5-min Rain = 0
KPVS 091940Z 21001KT 05/M02 A3033 RMK A01 T00501018  RH  062%=      5-min Rain = 0
KPVS 091945Z 31002KT 05/M02 A3033 RMK A01 T00531023  RH  059%=      5-min Rain = 0
KPVS 091950Z 34003KT 05/M03 A3033 RMK A01 T00491026  RH  059%=      5-min Rain = 0
KPVS 091955Z 33003KT 05/M03 A3033 RMK A01 T00471027  RH  059%=      5-min Rain = 0
KPVS 092000Z 34003KT 05/M03 A3033 RMK A01 T00461026  RH  060%=      5-min Rain = 0
KPVS 092005Z 33003KT 05/M02 A3033 RMK A01 T00481023  RH  061%=      5-min Rain = 0
KPVS 092010Z 33002KT 05/M02 A3032 RMK A01 T00491024  RH  060%=      5-min Rain = 0
KPVS 092015Z 29002KT 05/M02 A3032 RMK A01 T00511024  RH  059%=      5-min Rain = 0
KPVS 092020Z 31002KT 05/M02 A3032 RMK A01 T00501024  RH  059%=      5-min Rain = 0
KPVS 092025Z 33002KT 05/M02 A3032 RMK A01 T00501024  RH  060%=      5-min Rain = 0
KPVS 092030Z 20002KT 06/M02 A3032 RMK A01 T00571018  RH  059%=      5-min Rain = 0
KPVS 092035Z 20002KT 06/M02 A3032 RMK A01 T00601020  RH  057%=      5-min Rain = 0
KPVS 092040Z 20003KT 06/M02 A3031 RMK A01 T00551023  RH  058%=      5-min Rain = 0
KPVS 092045Z 18004KT 05/M02 A3031 RMK A01 T00511016  RH  063%=      5-min Rain = 0
KPVS 092050Z 17004KT 05/M02 A3031 RMK A01 T00491015  RH  064%=      5-min Rain = 0
KPVS 092055Z 17004KT 05/M01 A3031 RMK A01 T00521014  RH  063%=      5-min Rain = 0
KPVS 092100Z 18003KT 05/M02 A3032 RMK A01 T00511017  RH  062%=      5-min Rain = 0
KPVS 092105Z 17003KT 05/M02 A3032 RMK A01 T00521016  RH  062%=      5-min Rain = 0
KPVS 092110Z 18003KT 05/M01 A3031 RMK A01 T00521014  RH  064%=      5-min Rain = 0
KPVS 092115Z 18003KT 05/M01 A3032 RMK A01 T00541012  RH  063%=      5-min Rain = 0
KPVS 092120Z 18004KT 05/M02 A3032 RMK A01 T00521015  RH  062%=      5-min Rain = 0
KPVS 092125Z 17004KT 05/M01 A3032 RMK A01 T00491013  RH  065%=      5-min Rain = 0
KPVS 092130Z 18004KT 05/M01 A3032 RMK A01 T00501011  RH  065%=      5-min Rain = 0
KPVS 092135Z 19004KT 05/M01 A3031 RMK A01 T00501013  RH  064%=      5-min Rain = 0
KPVS 092140Z 18004KT 05/M02 A3031 RMK A01 T00491015  RH  064%=      5-min Rain = 0
KPVS 092145Z 17004KT 05/M01 A3031 RMK A01 T00501012  RH  065%=      5-min Rain = 0
KPVS 092150Z 16004KT 05/M01 A3031 RMK A01 T00521012  RH  064%=      5-min Rain = 0
KPVS 092155Z 17003KT 05/M01 A3032 RMK A01 T00531012  RH  064%=      5-min Rain = 0
KPVS 092200Z 19003KT 05/M01 A3032 RMK A01 T00531013  RH  063%=      5-min Rain = 0
KPVS 092205Z 20004KT 05/M02 A3032 RMK A01 T00491018  RH  063%=      5-min Rain = 0
KPVS 092210Z 20002KT 05/M02 A3031 RMK A01 T00491015  RH  064%=      5-min Rain = 0
KPVS 092215Z 20003KT 05/M02 A3031 RMK A01 T00481016  RH  064%=      5-min Rain = 0
KPVS 092220Z 19003KT 05/M02 A3031 RMK A01 T00481016  RH  064%=      5-min Rain = 0
KPVS 092225Z 22003KT 05/M02 A3031 RMK A01 T00481017  RH  064%=      5-min Rain = 0
KPVS 092230Z 20003KT 05/M02 A3032 RMK A01 T00471016  RH  064%=      5-min Rain = 0
KPVS 092235Z 21004KT 05/M02 A3032 RMK A01 T00461015  RH  065%=      5-min Rain = 0
KPVS 092240Z 21004KT 04/M02 A3032 RMK A01 T00441015  RH  066%=      5-min Rain = 0
KPVS 092245Z 22004KT 04/M02 A3032 RMK A01 T00431015  RH  067%=      5-min Rain = 0
KPVS 092250Z 23004KT 04/M02 A3032 RMK A01 T00431016  RH  066%=      5-min Rain = 0
KPVS 092255Z 23003KT 04/M02 A3032 RMK A01 T00421017  RH  066%=      5-min Rain = 0
KPVS 092300Z 22003KT 04/M02 A3032 RMK A01 T00411016  RH  067%=      5-min Rain = 0
KPVS 092305Z 20003KT 04/M02 A3032 RMK A01 T00401015  RH  068%=      5-min Rain = 0
KPVS 092310Z 19004KT 04/M01 A3032 RMK A01 T00381014  RH  070%=      5-min Rain = 0
KPVS 092315Z 19004KT 04/M02 A3032 RMK A01 T00351015  RH  071%=      5-min Rain = 0
KPVS 092320Z 18005KT 03/M02 A3031 RMK A01 T00301017  RH  072%=      5-min Rain = 0
KPVS 092325Z 19005KT 03/M02 A3031 RMK A01 T00251019  RH  074%=      5-min Rain = 0
KPVS 092330Z 19004KT 02/M02 A3031 RMK A01 T00221019  RH  075%=      5-min Rain = 0
KPVS 092335Z 20005KT 02/M02 A3031 RMK A01 T00181020  RH  077%=      5-min Rain = 0
KPVS 092340Z 21004KT 02/M02 A3032 RMK A01 T00181020  RH  077%=      5-min Rain = 0
KPVS 092345Z 21004KT 02/M02 A3032 RMK A01 T00181020  RH  076%=      5-min Rain = 0
KPVS 092350Z 21003KT 02/M02 A3032 RMK A01 T00171021  RH  077%=      5-min Rain = 0
KPVS 092355Z 21004KT 02/M02 A3032 RMK A01 T00151021  RH  078%=      5-min Rain = 0
KPVS 100000Z 22004KT 01/M02 A3032 RMK A01 T00131023  RH  078%=      5-min Rain = 0
KPVS 100005Z 21003KT 01/M03 A3032 RMK A01 T00111025  RH  078%=      5-min Rain = 0
KPVS 100010Z 21003KT 01/M03 A3032 RMK A01 T00081027  RH  079%=      5-min Rain = 0
KPVS 100015Z 21002KT 00/M03 A3033 RMK A01 T00041030  RH  079%=      5-min Rain = 0
KPVS 100020Z 23002KT M00/M03 A3033 RMK A01 T10011033  RH  080%=      5-min Rain = 0
KPVS 100025Z 25001KT M01/M04 A3033 RMK A01 T10071036  RH  081%=      5-min Rain = 0
KPVS 100030Z 22002KT M01/M04 A3033 RMK A01 T10091036  RH  083%=      5-min Rain = 0
KPVS 100035Z 23003KT M01/M04 A3033 RMK A01 T10111036  RH  084%=      5-min Rain = 0
KPVS 100040Z 24003KT M01/M04 A3033 RMK A01 T10141038  RH  085%=      5-min Rain = 0
KPVS 100045Z 25002KT M02/M04 A3034 RMK A01 T10161038  RH  086%=      5-min Rain = 0
KPVS 100050Z 26002KT M02/M04 A3034 RMK A01 T10181039  RH  087%=      5-min Rain = 0
KPVS 100055Z 26003KT M02/M04 A3034 RMK A01 T10191039  RH  087%=      5-min Rain = 0
KPVS 100100Z 26003KT M02/M04 A3034 RMK A01 T10201038  RH  088%=      5-min Rain = 0
KPVS 100105Z 27003KT M02/M04 A3034 RMK A01 T10191036  RH  089%=      5-min Rain = 0
KPVS 100110Z 28004KT M02/M04 A3035 RMK A01 T10191037  RH  089%=      5-min Rain = 0
KPVS 100115Z 28004KT M02/M04 A3035 RMK A01 T10211038  RH  089%=      5-min Rain = 0
KPVS 100120Z 28005KT M02/M04 A3034 RMK A01 T10201036  RH  090%=      5-min Rain = 0
KPVS 100125Z 28004KT M02/M03 A3035 RMK A01 T10171033  RH  090%=      5-min Rain = 0
KPVS 100130Z 28004KT M02/M03 A3035 RMK A01 T10151032  RH  089%=      5-min Rain = 0
KPVS 100135Z 28004KT M01/M03 A3035 RMK A01 T10131030  RH  089%=      5-min Rain = 0
KPVS 100140Z 28003KT M01/M03 A3035 RMK A01 T10121030  RH  089%=      5-min Rain = 0
KPVS 100145Z 28003KT M01/M03 A3035 RMK A01 T10101029  RH  088%=      5-min Rain = 0
KPVS 100150Z 29003KT M01/M03 A3035 RMK A01 T10121031  RH  087%=      5-min Rain = 0
KPVS 100155Z 29002KT M01/M03 A3035 RMK A01 T10131032  RH  088%=      5-min Rain = 0
KPVS 100200Z 29002KT M01/M03 A3035 RMK A01 T10131031  RH  088%=      5-min Rain = 0
KPVS 100205Z 28002KT M01/M03 A3035 RMK A01 T10121030  RH  089%=      5-min Rain = 0
KPVS 100210Z 27002KT M01/M03 A3035 RMK A01 T10141032  RH  088%=      5-min Rain = 0
KPVS 100215Z 27002KT M01/M03 A3035 RMK A01 T10141032  RH  089%=      5-min Rain = 0
KPVS 100220Z 25002KT M02/M03 A3035 RMK A01 T10151033  RH  089%=      5-min Rain = 0
KPVS 100225Z 25003KT M02/M04 A3035 RMK A01 T10171035  RH  089%=      5-min Rain = 0
KPVS 100230Z 27003KT M02/M04 A3036 RMK A01 T10191036  RH  089%=      5-min Rain = 0
KPVS 100235Z 28004KT M02/M04 A3036 RMK A01 T10231040  RH  089%=      5-min Rain = 0
KPVS 100240Z 28004KT M03/M04 A3036 RMK A01 T10281044  RH  089%=      5-min Rain = 0
KPVS 100245Z 26003KT M03/M04 A3036 RMK A01 T10271040  RH  091%=      5-min Rain = 0
KPVS 100250Z 26003KT M02/M04 A3036 RMK A01 T10211035  RH  092%=      5-min Rain = 0
KPVS 100255Z 27003KT M02/M03 A3036 RMK A01 T10191033  RH  091%=      5-min Rain = 0
KPVS 100300Z 29003KT M02/M03 A3036 RMK A01 T10191034  RH  090%=      5-min Rain = 0
KPVS 100305Z 28004KT M02/M04 A3036 RMK A01 T10211037  RH  090%=      5-min Rain = 0
KPVS 100310Z 27004KT M02/M04 A3037 RMK A01 T10211035  RH  091%=      5-min Rain = 0
KPVS 100315Z 28004KT M02/M03 A3037 RMK A01 T10201034  RH  091%=      5-min Rain = 0
KPVS 100320Z 27003KT M02/M04 A3037 RMK A01 T10201036  RH  090%=      5-min Rain = 0
KPVS 100325Z 26003KT M02/M03 A3037 RMK A01 T10191034  RH  091%=      5-min Rain = 0
KPVS 100330Z 26003KT M02/M03 A3037 RMK A01 T10181034  RH  090%=      5-min Rain = 0
KPVS 100335Z 26003KT M02/M03 A3036 RMK A01 T10181033  RH  090%=      5-min Rain = 0
KPVS 100340Z 27003KT M02/M03 A3036 RMK A01 T10181034  RH  090%=      5-min Rain = 0
KPVS 100345Z 27002KT M02/M04 A3036 RMK A01 T10191035  RH  090%=      5-min Rain = 0
KPVS 100350Z 27002KT M02/M04 A3036 RMK A01 T10201036  RH  090%=      5-min Rain = 0
KPVS 100355Z 27002KT M02/M04 A3036 RMK A01 T10211036  RH  090%=      5-min Rain = 0
KPVS 100400Z 28003KT M02/M04 A3036 RMK A01 T10211036  RH  091%=      5-min Rain = 0
KPVS 100405Z 28003KT M02/M04 A3036 RMK A01 T10211036  RH  091%=      5-min Rain = 0
KPVS 100410Z 27002KT M02/M04 A3036 RMK A01 T10211035  RH  091%=      5-min Rain = 0
KPVS 100415Z 26003KT M02/M03 A3036 RMK A01 T10211034  RH  091%=      5-min Rain = 0
KPVS 100420Z 27003KT M02/M03 A3036 RMK A01 T10201034  RH  091%=      5-min Rain = 0
KPVS 100425Z 28003KT M02/M03 A3036 RMK A01 T10211034  RH  091%=      5-min Rain = 0
KPVS 100430Z 27003KT M02/M04 A3037 RMK A01 T10211035  RH  091%=      5-min Rain = 0
KPVS 100435Z 26003KT M02/M03 A3037 RMK A01 T10211034  RH  092%=      5-min Rain = 0
KPVS 100440Z 27003KT M02/M03 A3037 RMK A01 T10211034  RH  092%=      5-min Rain = 0
KPVS 100445Z 27002KT M02/M03 A3037 RMK A01 T10201033  RH  092%=      5-min Rain = 0
KPVS 100450Z 29002KT M02/M03 A3036 RMK A01 T10201032  RH  092%=      5-min Rain = 0
KPVS 100455Z 30004KT M02/M03 A3037 RMK A01 T10191031  RH  092%=      5-min Rain = 0
KPVS 100500Z 30004KT M02/M03 A3037 RMK A01 T10191032  RH  092%=      5-min Rain = 0
KPVS 100505Z 28005KT M02/M03 A3037 RMK A01 T10201033  RH  092%=      5-min Rain = 0
KPVS 100510Z 29005KT M02/M03 A3037 RMK A01 T10221034  RH  092%=      5-min Rain = 0
KPVS 100515Z 29006KT M02/M04 A3037 RMK A01 T10221035  RH  092%=      5-min Rain = 0
KPVS 100520Z 28007KT M02/M03 A3037 RMK A01 T10201030  RH  094%=      5-min Rain = 0
KPVS 100525Z 29006KT M02/M03 A3037 RMK A01 T10161029  RH  092%=      5-min Rain = 0
KPVS 100530Z 28006KT M02/M03 A3037 RMK A01 T10161028  RH  092%=      5-min Rain = 0
KPVS 100535Z 27006KT M02/M03 A3037 RMK A01 T10151027  RH  092%=      5-min Rain = 0
KPVS 100540Z 28005KT M02/M03 A3036 RMK A01 T10151029  RH  091%=      5-min Rain = 0
KPVS 100545Z 29005KT M02/M03 A3036 RMK A01 T10201034  RH  091%=      5-min Rain = 0
KPVS 100550Z 29005KT M02/M04 A3036 RMK A01 T10221035  RH  092%=      5-min Rain = 0
KPVS 100555Z 28006KT M02/M03 A3036 RMK A01 T10221034  RH  093%=      5-min Rain = 0

Page generated in 0.009 seconds.